createdAt,value
2024-04-11T00:00:56.309Z,18.44
2024-04-11T00:03:23.112Z,18.44
2024-04-11T00:05:49.808Z,18.43
2024-04-11T00:08:16.417Z,18.45
2024-04-11T00:10:43.225Z,18.44
2024-04-11T00:13:09.905Z,18.43
2024-04-11T00:15:36.502Z,18.45
2024-04-11T00:18:04.025Z,18.44
2024-04-11T00:20:30.883Z,18.43
2024-04-11T00:22:57.462Z,18.43
2024-04-11T00:25:24.020Z,18.43
2024-04-11T00:27:50.562Z,18.43
2024-04-11T00:30:17.151Z,18.42
2024-04-11T00:32:44.421Z,18.42
2024-04-11T00:35:11.297Z,18.42
2024-04-11T00:37:38.137Z,18.42
2024-04-11T00:40:05.907Z,18.42
2024-04-11T00:42:33.477Z,18.42
2024-04-11T00:45:00.308Z,18.41
2024-04-11T00:47:27.169Z,18.41
2024-04-11T00:49:54.104Z,18.41
2024-04-11T00:52:20.711Z,18.40
2024-04-11T00:54:48.206Z,18.39
2024-04-11T00:57:15.032Z,18.39
2024-04-11T00:59:42.683Z,18.40
2024-04-11T01:02:13.965Z,18.40
2024-04-11T01:04:41.034Z,18.39
2024-04-11T01:07:09.742Z,18.39
2024-04-11T01:09:40.892Z,18.39
2024-04-11T01:12:08.568Z,18.39
2024-04-11T01:14:35.727Z,18.39
2024-04-11T01:17:02.443Z,18.38
2024-04-11T01:19:29.145Z,18.37
2024-04-11T01:21:57.558Z,18.37
2024-04-11T01:24:24.198Z,18.37
2024-04-11T01:26:51.197Z,18.37
2024-04-11T01:29:17.816Z,18.36
2024-04-11T01:31:45.550Z,18.36
2024-04-11T01:34:12.730Z,18.37
2024-04-11T01:36:39.571Z,18.38
2024-04-11T01:39:10.634Z,18.38
2024-04-11T01:41:40.516Z,18.38
2024-04-11T01:44:07.167Z,18.39
2024-04-11T01:46:34.024Z,18.38
2024-04-11T01:49:02.309Z,18.38
2024-04-11T01:51:29.043Z,18.37
2024-04-11T01:53:55.807Z,18.37
2024-04-11T01:56:22.695Z,18.38
2024-04-11T01:58:49.949Z,18.37
2024-04-11T02:01:20.821Z,18.37
2024-04-11T02:03:47.751Z,18.37
2024-04-11T02:06:14.655Z,18.36
2024-04-11T02:08:42.715Z,18.37
2024-04-11T02:11:09.636Z,18.37
2024-04-11T02:13:36.489Z,18.37
2024-04-11T02:16:03.097Z,18.37
2024-04-11T02:18:30.444Z,18.38
2024-04-11T02:20:57.957Z,18.37
2024-04-11T02:23:25.419Z,18.39
2024-04-11T02:25:53.125Z,18.38
2024-04-11T02:28:22.683Z,18.37
2024-04-11T02:30:49.281Z,18.38
2024-04-11T02:33:16.065Z,18.37
2024-04-11T02:35:44.559Z,18.36
2024-04-11T02:38:11.295Z,18.36
2024-04-11T02:40:38.585Z,18.35
2024-04-11T02:43:05.672Z,18.37
2024-04-11T02:45:32.805Z,18.35
2024-04-11T02:47:59.750Z,18.34
2024-04-11T02:50:28.799Z,18.34
2024-04-11T02:52:55.412Z,18.35
2024-04-11T02:55:22.002Z,18.34
2024-04-11T02:57:48.604Z,18.33
2024-04-11T03:00:18.529Z,18.35
2024-04-11T03:02:45.368Z,18.34
2024-04-11T03:05:13.555Z,18.36
2024-04-11T03:07:41.467Z,18.35
2024-04-11T03:10:08.941Z,18.38
2024-04-11T03:12:35.653Z,18.37
2024-04-11T03:15:05.285Z,18.37
2024-04-11T03:17:35.022Z,18.36
2024-04-11T03:20:02.236Z,18.37
2024-04-11T03:22:28.853Z,18.36
2024-04-11T03:24:55.474Z,18.38
2024-04-11T03:27:22.033Z,18.38
2024-04-11T03:29:49.846Z,18.40
2024-04-11T03:32:16.788Z,18.39
2024-04-11T03:34:43.459Z,18.39
2024-04-11T03:37:11.198Z,18.37
2024-04-11T03:39:37.804Z,18.37
2024-04-11T03:42:04.802Z,18.38
2024-04-11T03:44:31.454Z,18.38
2024-04-11T03:46:59.592Z,18.37
2024-04-11T03:49:26.337Z,18.38
2024-04-11T03:51:52.924Z,18.38
2024-04-11T03:54:19.578Z,18.37
2024-04-11T03:56:46.262Z,18.38
2024-04-11T03:59:13.243Z,18.36
2024-04-11T04:01:39.880Z,18.37
2024-04-11T04:04:07.576Z,18.37
2024-04-11T04:06:36.372Z,18.35
2024-04-11T04:09:10.544Z,18.35
2024-04-11T04:11:38.490Z,18.36
2024-04-11T04:14:10.432Z,18.36
2024-04-11T04:16:39.923Z,18.35
2024-04-11T04:19:06.953Z,18.35
2024-04-11T04:21:34.407Z,18.35
2024-04-11T04:24:04.609Z,18.34
2024-04-11T04:26:34.522Z,18.35
2024-04-11T04:29:01.502Z,18.34
2024-04-11T04:31:32.008Z,18.34
2024-04-11T04:34:00.512Z,18.34
2024-04-11T04:36:34.471Z,18.33
2024-04-11T04:39:01.918Z,18.33
2024-04-11T04:41:30.510Z,18.33
2024-04-11T04:43:58.794Z,18.34
2024-04-11T04:46:27.552Z,18.33
2024-04-11T04:48:54.348Z,18.34
2024-04-11T04:51:21.429Z,18.33
2024-04-11T04:53:51.401Z,18.33
2024-04-11T04:56:23.736Z,18.34
2024-04-11T04:58:52.863Z,18.36
2024-04-11T05:01:19.854Z,18.34
2024-04-11T05:03:46.633Z,18.36
2024-04-11T05:06:15.047Z,18.35
2024-04-11T05:08:47.868Z,18.36
2024-04-11T05:11:15.852Z,18.41
2024-04-11T05:13:47.224Z,18.53
2024-04-11T05:16:20.688Z,18.69
2024-04-11T05:18:51.061Z,18.94
2024-04-11T05:21:20.087Z,19.23
2024-04-11T05:23:46.838Z,19.52
2024-04-11T05:26:16.586Z,19.76
2024-04-11T05:28:46.690Z,20.44
2024-04-11T05:31:18.431Z,21.82
2024-04-11T05:33:46.507Z,22.17
2024-04-11T05:36:19.402Z,22.22
2024-04-11T05:38:47.730Z,21.93
2024-04-11T05:41:15.708Z,21.34
2024-04-11T05:43:49.167Z,20.83
2024-04-11T05:46:16.282Z,20.53
2024-04-11T05:48:43.727Z,20.25
2024-04-11T05:51:12.093Z,20.09
2024-04-11T05:53:39.210Z,19.91
2024-04-11T05:56:07.413Z,19.76
2024-04-11T05:58:34.885Z,19.67
2024-04-11T06:01:07.322Z,19.59
2024-04-11T06:03:35.722Z,19.50
2024-04-11T06:06:02.651Z,19.43
2024-04-11T06:08:29.420Z,19.37
2024-04-11T06:10:57.675Z,19.29
2024-04-11T06:13:24.393Z,19.23
2024-04-11T06:15:51.613Z,19.17
2024-04-11T06:18:19.551Z,19.17
2024-04-11T06:20:46.348Z,19.13
2024-04-11T06:23:18.898Z,19.07
2024-04-11T06:25:47.078Z,19.02
2024-04-11T06:28:15.766Z,18.97
2024-04-11T06:30:43.282Z,18.91
2024-04-11T06:33:10.214Z,18.88
2024-04-11T06:35:37.621Z,18.83
2024-04-11T06:38:08.712Z,18.83
2024-04-11T06:40:35.384Z,18.80
2024-04-11T06:43:02.774Z,18.77
2024-04-11T06:45:31.459Z,18.76
2024-04-11T06:47:58.636Z,18.75
2024-04-11T06:50:25.534Z,18.74
2024-04-11T06:52:55.099Z,18.71
2024-04-11T06:55:21.828Z,18.71
2024-04-11T06:57:48.510Z,18.69
2024-04-11T07:00:37.023Z,18.68
2024-04-11T07:03:15.363Z,18.69
2024-04-11T07:05:53.340Z,18.68
2024-04-11T07:08:20.751Z,18.68
2024-04-11T07:10:47.764Z,18.71
2024-04-11T07:13:14.437Z,18.71
2024-04-11T07:15:44.281Z,18.73
2024-04-11T07:18:16.632Z,18.74
2024-04-11T07:20:50.441Z,18.75
2024-04-11T07:23:19.204Z,18.74
2024-04-11T07:25:45.761Z,18.75
2024-04-11T07:28:12.339Z,18.75
2024-04-11T07:30:39.557Z,18.74
2024-04-11T07:33:08.128Z,18.71
2024-04-11T07:35:38.958Z,18.70
2024-04-11T07:38:06.158Z,18.69
2024-04-11T07:40:34.185Z,18.68
2024-04-11T07:43:09.733Z,18.66
2024-04-11T07:45:40.209Z,18.67
2024-04-11T07:48:10.875Z,18.69
2024-04-11T07:50:40.275Z,18.69
2024-04-11T07:53:16.022Z,18.73
2024-04-11T07:55:45.886Z,18.73
2024-04-11T07:58:12.494Z,18.72
2024-04-11T08:00:49.058Z,18.71
2024-04-11T08:03:18.066Z,18.70
2024-04-11T08:05:49.685Z,18.74
2024-04-11T08:08:21.293Z,18.82
2024-04-11T08:10:51.897Z,18.85
2024-04-11T08:13:20.425Z,18.92
2024-04-11T08:15:47.101Z,18.96
2024-04-11T08:18:13.745Z,18.99
2024-04-11T08:20:41.721Z,19.03
2024-04-11T08:25:38.321Z,19.18
2024-04-11T08:28:05.183Z,19.20
2024-04-11T08:30:31.817Z,19.19
2024-04-11T08:33:01.151Z,19.21
2024-04-11T08:35:28.018Z,19.21
2024-04-11T08:37:54.607Z,19.24
2024-04-11T08:40:22.033Z,19.24
2024-04-11T08:42:49.206Z,19.23
2024-04-11T08:45:15.840Z,19.25
2024-04-11T08:47:42.590Z,19.23
2024-04-11T08:50:11.444Z,19.21
2024-04-11T08:52:45.178Z,19.18
2024-04-11T08:55:15.805Z,19.19
2024-04-11T08:57:46.474Z,19.16
2024-04-11T09:00:15.036Z,19.08
2024-04-11T09:02:45.518Z,19.07
2024-04-11T09:05:16.258Z,19.09
2024-04-11T09:07:47.205Z,19.07
2024-04-11T09:10:14.564Z,19.03
2024-04-11T09:12:44.394Z,18.96
2024-04-11T09:15:11.272Z,18.93
2024-04-11T09:17:41.858Z,18.86
2024-04-11T09:20:13.682Z,18.84
2024-04-11T09:22:55.514Z,18.84
2024-04-11T09:25:27.518Z,18.82
2024-04-11T09:28:00.363Z,18.80
2024-04-11T09:30:33.914Z,18.80
2024-04-11T09:33:06.645Z,18.77
2024-04-11T09:35:42.650Z,18.75
2024-04-11T09:38:14.980Z,18.73
2024-04-11T09:40:55.027Z,18.70
2024-04-11T09:43:28.623Z,18.70
2024-04-11T09:46:05.341Z,18.70
2024-04-11T09:48:33.582Z,18.72
2024-04-11T09:51:01.452Z,18.71
2024-04-11T09:53:30.039Z,18.70
2024-04-11T09:55:58.543Z,18.71
2024-04-11T09:58:29.769Z,18.70
2024-04-11T10:01:06.487Z,18.72
2024-04-11T10:03:35.403Z,18.70
2024-04-11T10:06:05.353Z,18.70
2024-04-11T10:08:37.895Z,18.69
2024-04-11T10:11:05.408Z,18.69
2024-04-11T10:13:42.171Z,18.69
2024-04-11T10:16:30.957Z,18.71
2024-04-11T10:19:09.803Z,18.77
2024-04-11T10:21:47.938Z,18.85
2024-04-11T10:24:27.664Z,18.93
2024-04-11T10:26:56.518Z,18.99
2024-04-11T10:29:28.305Z,19.03
2024-04-11T10:31:59.748Z,19.10
2024-04-11T10:34:36.204Z,19.17
2024-04-11T10:37:09.112Z,19.22
2024-04-11T10:39:39.647Z,19.22
2024-04-11T10:42:11.509Z,19.28
2024-04-11T10:44:38.751Z,19.26
2024-04-11T10:47:09.020Z,19.29
2024-04-11T10:49:39.374Z,19.32
2024-04-11T10:52:06.955Z,19.31
2024-04-11T10:54:33.923Z,19.32
2024-04-11T10:57:01.642Z,19.30
2024-04-11T10:59:28.556Z,19.25
2024-04-11T11:02:06.942Z,19.21
2024-04-11T11:04:34.708Z,19.30
2024-04-11T11:07:11.576Z,19.19
2024-04-11T11:09:44.364Z,19.19
2024-04-11T11:12:14.267Z,19.35
2024-04-11T11:14:41.821Z,19.33
2024-04-11T11:17:18.768Z,19.30
2024-04-11T11:19:51.508Z,19.33
2024-04-11T11:22:31.445Z,19.27
2024-04-11T11:25:02.580Z,19.26
2024-04-11T11:27:33.995Z,19.24
2024-04-11T11:30:01.256Z,19.24
2024-04-11T11:32:28.373Z,19.24
2024-04-11T11:34:55.104Z,19.24
2024-04-11T11:37:23.241Z,19.24
2024-04-11T11:39:56.743Z,19.24
2024-04-11T11:42:26.293Z,19.23
2024-04-11T11:44:59.556Z,19.22
2024-04-11T11:47:37.185Z,19.22
2024-04-11T11:50:15.887Z,19.23
2024-04-11T11:52:46.815Z,19.22
2024-04-11T11:55:18.388Z,19.22
2024-04-11T11:57:59.485Z,19.24
2024-04-11T12:00:34.349Z,19.23
2024-04-11T12:03:18.777Z,19.24
2024-04-11T12:05:54.344Z,19.23
2024-04-11T12:08:21.102Z,19.24
2024-04-11T12:11:03.058Z,19.24
2024-04-11T12:13:36.313Z,19.25
2024-04-11T12:16:06.950Z,19.23
2024-04-11T12:18:33.800Z,19.23
2024-04-11T12:21:00.778Z,19.20
2024-04-11T12:23:31.070Z,19.18
2024-04-11T12:25:59.325Z,19.18
2024-04-11T12:28:30.183Z,19.17
2024-04-11T12:31:11.096Z,19.16
2024-04-11T12:33:45.751Z,19.16
2024-04-11T12:36:32.021Z,19.19
2024-04-11T12:39:19.667Z,19.20
2024-04-11T12:41:47.040Z,19.21
2024-04-11T12:44:14.039Z,19.23
2024-04-11T12:46:54.296Z,19.21
2024-04-11T12:49:27.518Z,19.23
2024-04-11T12:51:56.926Z,19.23
2024-04-11T12:54:31.295Z,19.23
2024-04-11T12:57:06.573Z,19.23
2024-04-11T12:59:36.412Z,19.24
2024-04-11T13:02:08.744Z,19.25
2024-04-11T13:04:37.897Z,19.23
2024-04-11T13:07:12.360Z,19.24
2024-04-11T13:09:56.709Z,19.23
2024-04-11T13:12:29.850Z,19.22
2024-04-11T13:15:10.659Z,19.22
2024-04-11T13:17:40.127Z,19.23
2024-04-11T13:20:14.231Z,19.21
2024-04-11T13:22:50.318Z,19.22
2024-04-11T13:25:22.499Z,19.22
2024-04-11T13:27:54.296Z,19.21
2024-04-11T13:30:22.016Z,19.21
2024-04-11T13:32:54.191Z,19.20
2024-04-11T13:35:39.690Z,19.20
2024-04-11T13:38:17.461Z,19.20
2024-04-11T13:41:09.897Z,19.20
2024-04-11T13:43:40.223Z,19.21
2024-04-11T13:46:10.904Z,19.19
2024-04-11T13:48:38.627Z,19.18
2024-04-11T13:51:11.522Z,19.19
2024-04-11T13:53:38.278Z,19.17
2024-04-11T13:56:06.047Z,19.17
2024-04-11T13:58:34.504Z,19.21
2024-04-11T14:01:04.091Z,19.20
2024-04-11T14:03:46.669Z,19.22
2024-04-11T14:06:13.583Z,19.28
2024-04-11T14:08:44.533Z,19.39
2024-04-11T14:11:11.799Z,19.49
2024-04-11T14:13:44.150Z,19.47
2024-04-11T14:16:11.883Z,19.52
2024-04-11T14:18:40.577Z,19.49
2024-04-11T14:21:19.796Z,19.43
2024-04-11T14:24:19.689Z,19.38
2024-04-11T14:26:52.484Z,19.37
2024-04-11T14:29:23.047Z,19.41
2024-04-11T14:31:50.998Z,19.52
2024-04-11T14:34:18.060Z,19.53
2024-04-11T14:37:30.770Z,19.54
2024-04-11T14:40:05.101Z,19.52
2024-04-11T14:42:35.652Z,19.54
2024-04-11T14:45:08.096Z,19.54
2024-04-11T14:47:35.168Z,19.60
2024-04-11T14:50:03.942Z,19.57
2024-04-11T14:52:33.936Z,19.54
2024-04-11T14:55:01.073Z,19.61
2024-04-11T14:57:30.868Z,19.72
2024-04-11T15:00:00.792Z,19.72
2024-04-11T15:02:30.535Z,19.87
2024-04-11T15:05:11.978Z,19.83
2024-04-11T15:07:39.029Z,19.85
2024-04-11T15:10:18.552Z,19.81
2024-04-11T15:12:50.900Z,19.84
2024-04-11T15:15:23.525Z,20.06
2024-04-11T15:18:00.166Z,20.30
2024-04-11T15:20:34.466Z,20.42
2024-04-11T15:23:02.857Z,20.58
2024-04-11T15:25:32.771Z,20.72
2024-04-11T15:28:06.839Z,20.79
2024-04-11T15:31:12.664Z,20.88
2024-04-11T15:33:55.311Z,21.00
2024-04-11T15:36:35.496Z,21.14
2024-04-11T15:39:02.848Z,21.24
2024-04-11T15:41:30.739Z,21.31
2024-04-11T15:43:57.571Z,21.42
2024-04-11T15:46:25.661Z,21.49
2024-04-11T15:49:08.590Z,21.62
2024-04-11T15:51:36.768Z,22.08
2024-04-11T15:54:17.837Z,22.85
2024-04-11T15:56:46.195Z,22.95
2024-04-11T15:59:19.308Z,22.81
2024-04-11T16:01:46.289Z,22.28
2024-04-11T16:04:17.711Z,21.62
2024-04-11T16:06:47.865Z,21.25
2024-04-11T16:09:18.484Z,20.99
2024-04-11T16:11:47.551Z,20.77
2024-04-11T16:14:16.830Z,20.68
2024-04-11T16:16:51.981Z,20.58
2024-04-11T16:19:19.003Z,20.47
2024-04-11T16:21:45.807Z,20.35
2024-04-11T16:24:15.618Z,20.30
2024-04-11T16:26:42.204Z,20.21
2024-04-11T16:29:08.917Z,20.11
2024-04-11T16:31:43.578Z,20.09
2024-04-11T16:34:11.524Z,20.03
2024-04-11T16:36:54.585Z,19.99
2024-04-11T16:39:33.157Z,19.96
2024-04-11T16:42:16.068Z,19.97
2024-04-11T16:44:49.796Z,19.95
2024-04-11T16:47:17.665Z,19.93
2024-04-11T16:49:45.068Z,19.88
2024-04-11T16:52:17.968Z,19.90
2024-04-11T16:54:47.018Z,19.90
2024-04-11T16:57:14.578Z,19.88
2024-04-11T16:59:45.129Z,19.85
2024-04-11T17:02:12.156Z,19.86
2024-04-11T17:04:48.419Z,19.84
2024-04-11T17:07:26.279Z,19.81
2024-04-11T17:09:56.425Z,19.78
2024-04-11T17:12:24.335Z,19.75
2024-04-11T17:14:55.303Z,19.75
2024-04-11T17:17:51.941Z,19.76
2024-04-11T17:20:21.336Z,19.76
2024-04-11T17:22:51.795Z,19.72
2024-04-11T17:25:19.252Z,19.71
2024-04-11T17:27:48.797Z,19.71
2024-04-11T17:30:15.546Z,19.71
2024-04-11T17:32:43.030Z,19.72
2024-04-11T17:35:22.522Z,19.70
2024-04-11T17:37:50.098Z,19.73
2024-04-11T17:40:36.314Z,19.69
2024-04-11T17:43:04.157Z,19.63
2024-04-11T17:45:31.356Z,19.64
2024-04-11T17:48:01.821Z,19.64
2024-04-11T17:50:39.774Z,19.62
2024-04-11T17:53:07.050Z,19.63
2024-04-11T17:55:39.110Z,19.58
2024-04-11T17:58:12.539Z,19.54
2024-04-11T18:00:41.750Z,19.54
2024-04-11T18:03:15.647Z,19.54
2024-04-11T18:05:43.688Z,19.57
2024-04-11T18:08:11.771Z,19.55
2024-04-11T18:10:39.608Z,19.54
2024-04-11T18:13:06.974Z,19.55
2024-04-11T18:15:35.046Z,19.51
2024-04-11T18:18:05.021Z,19.52
2024-04-11T18:20:31.907Z,19.52
2024-04-11T18:22:59.092Z,19.48
2024-04-11T18:25:30.588Z,19.49
2024-04-11T18:28:02.030Z,19.42
2024-04-11T18:30:29.926Z,19.42
2024-04-11T18:32:56.636Z,19.41
2024-04-11T18:35:27.613Z,19.38
2024-04-11T18:37:55.690Z,19.40
2024-04-11T18:40:25.162Z,19.43
2024-04-11T18:43:21.489Z,19.43
2024-04-11T18:45:53.599Z,19.41
2024-04-11T18:48:21.484Z,19.42
2024-04-11T18:50:49.559Z,19.40
2024-04-11T18:53:26.045Z,19.40
2024-04-11T18:55:56.457Z,19.31
2024-04-11T18:58:25.771Z,19.31
2024-04-11T19:00:58.117Z,19.30
2024-04-11T19:03:29.291Z,19.28
2024-04-11T19:06:06.158Z,19.25
2024-04-11T19:08:34.436Z,19.27
2024-04-11T19:11:14.665Z,19.25
2024-04-11T19:13:45.307Z,19.25
2024-04-11T19:16:13.587Z,19.25
2024-04-11T19:18:44.595Z,19.17
2024-04-11T19:21:18.339Z,19.14
2024-04-11T19:23:49.797Z,19.11
2024-04-11T19:26:18.260Z,19.08
2024-04-11T19:28:45.618Z,19.08
2024-04-11T19:31:32.786Z,19.06
2024-04-11T19:33:59.667Z,19.06
2024-04-11T19:36:26.387Z,19.01
2024-04-11T19:38:57.302Z,18.94
2024-04-11T19:41:28.707Z,18.93
2024-04-11T19:43:56.356Z,18.91
2024-04-11T19:46:25.804Z,18.89
2024-04-11T19:48:54.386Z,18.89
2024-04-11T19:51:24.278Z,18.91
2024-04-11T19:53:55.869Z,18.91
2024-04-11T19:56:43.685Z,18.92
2024-04-11T19:59:11.890Z,18.93
2024-04-11T20:01:49.350Z,18.93
2024-04-11T20:04:30.883Z,18.95
2024-04-11T20:07:02.759Z,18.95
2024-04-11T20:09:34.249Z,18.97
2024-04-11T20:12:14.843Z,19.02
2024-04-11T20:14:50.590Z,19.05
2024-04-11T20:17:18.910Z,19.05
2024-04-11T20:19:47.067Z,19.03
2024-04-11T20:22:20.730Z,19.02
2024-04-11T20:24:54.522Z,19.02
2024-04-11T20:27:22.878Z,19.02
2024-04-11T20:29:55.838Z,19.01
2024-04-11T20:32:30.499Z,19.00
2024-04-11T20:35:23.714Z,18.98
2024-04-11T20:37:52.341Z,18.99
2024-04-11T20:40:26.528Z,18.98
2024-04-11T20:43:08.356Z,19.00
2024-04-11T20:45:36.279Z,19.02
2024-04-11T20:48:15.772Z,19.04
2024-04-11T20:51:08.255Z,19.05
2024-04-11T20:53:53.694Z,19.06
2024-04-11T20:56:39.284Z,19.05
2024-04-11T20:59:24.570Z,19.06
2024-04-11T21:02:09.805Z,19.03
2024-04-11T21:04:55.127Z,19.05
2024-04-11T21:07:40.419Z,19.05
2024-04-11T21:10:26.333Z,19.04
2024-04-11T21:13:11.702Z,19.03
2024-04-11T21:15:57.830Z,19.03
2024-04-11T21:18:43.437Z,19.02
2024-04-11T21:21:28.584Z,19.02
2024-04-11T21:24:13.932Z,19.02
2024-04-11T21:26:59.127Z,19.01
2024-04-11T21:29:44.436Z,19.00
2024-04-11T21:32:30.698Z,19.01
2024-04-11T21:35:00.918Z,18.99
2024-04-11T21:37:37.986Z,18.99
2024-04-11T21:40:15.014Z,18.98
2024-04-11T21:42:42.331Z,18.98
2024-04-11T21:45:20.278Z,18.98
2024-04-11T21:47:47.357Z,18.97
2024-04-11T21:50:16.247Z,18.96
2024-04-11T21:52:53.918Z,18.96
2024-04-11T21:55:26.685Z,18.94
2024-04-11T21:57:53.242Z,18.93
2024-04-11T22:00:40.178Z,18.93
2024-04-11T22:03:08.827Z,18.94
2024-04-11T22:05:43.230Z,18.96
2024-04-11T22:08:12.408Z,18.94
2024-04-11T22:10:44.739Z,18.94
2024-04-11T22:13:18.738Z,18.93
2024-04-11T22:15:47.343Z,18.93
2024-04-11T22:18:31.043Z,18.93
2024-04-11T22:21:13.184Z,18.92
2024-04-11T22:23:45.800Z,18.91
2024-04-11T22:26:18.956Z,18.91
2024-04-11T22:28:47.810Z,18.91
2024-04-11T22:31:16.364Z,18.91
2024-04-11T22:33:44.381Z,18.91
2024-04-11T22:36:26.514Z,18.90
2024-04-11T22:38:54.960Z,18.89
2024-04-11T22:41:26.880Z,18.91
2024-04-11T22:43:55.060Z,18.89
2024-04-11T22:46:35.951Z,18.89
2024-04-11T22:49:14.280Z,18.88
2024-04-11T22:51:43.511Z,18.89
2024-04-11T22:54:19.087Z,18.91
2024-04-11T22:57:00.747Z,18.90
2024-04-11T22:59:38.241Z,18.88
2024-04-11T23:02:17.036Z,18.88
2024-04-11T23:05:02.127Z,18.87
2024-04-11T23:07:36.956Z,18.88
2024-04-11T23:10:11.132Z,18.89
2024-04-11T23:12:40.234Z,18.87
2024-04-11T23:15:14.316Z,18.86
2024-04-11T23:17:57.814Z,18.86
2024-04-11T23:20:29.529Z,18.84
2024-04-11T23:22:58.338Z,18.84
2024-04-11T23:25:26.180Z,18.84
2024-04-11T23:27:56.792Z,18.84
2024-04-11T23:30:38.479Z,18.84
2024-04-11T23:33:10.349Z,18.85
2024-04-11T23:35:37.172Z,18.85
2024-04-11T23:38:07.575Z,18.84
2024-04-11T23:40:40.794Z,18.84
2024-04-11T23:43:24.514Z,18.85
2024-04-11T23:46:00.059Z,18.85
2024-04-11T23:48:32.108Z,18.83
2024-04-11T23:51:00.101Z,18.83
2024-04-11T23:53:31.059Z,18.83
2024-04-11T23:56:03.929Z,18.82
2024-04-11T23:58:42.893Z,18.82
